createdAt,value
2019-03-21T00:01:08.643Z,13.38
2019-03-21T00:03:38.248Z,18.20
2019-03-21T00:06:10.920Z,21.48
2019-03-21T00:08:40.526Z,17.42
2019-03-21T00:11:29.872Z,17.98
2019-03-21T00:14:08.708Z,15.45
2019-03-21T00:16:38.299Z,18.90
2019-03-21T00:19:07.894Z,19.37
2019-03-21T00:21:37.507Z,14.45
2019-03-21T00:24:07.099Z,13.70
2019-03-21T00:26:36.711Z,17.30
2019-03-21T00:29:06.307Z,16.42
2019-03-21T00:31:35.947Z,17.75
2019-03-21T00:34:05.569Z,19.07
2019-03-21T00:36:35.193Z,18.25
2019-03-21T00:39:07.497Z,15.38
2019-03-21T00:41:37.100Z,15.05
2019-03-21T00:44:17.549Z,20.52
2019-03-21T00:46:38.027Z,13.60
2019-03-21T00:49:07.615Z,15.43
2019-03-21T00:51:37.218Z,19.60
2019-03-21T00:54:06.819Z,16.07
2019-03-21T00:56:36.419Z,12.47
2019-03-21T00:59:06.027Z,15.72
2019-03-21T01:01:35.641Z,16.05
2019-03-21T01:04:05.260Z,18.20
2019-03-21T01:06:34.848Z,16.97
2019-03-21T01:09:07.550Z,19.07
2019-03-21T01:11:37.144Z,20.23
2019-03-21T01:14:06.767Z,15.13
2019-03-21T01:16:36.394Z,16.27
2019-03-21T01:19:06.136Z,15.65
2019-03-21T01:21:35.779Z,15.90
2019-03-21T01:24:05.451Z,18.32
2019-03-21T01:26:35.041Z,16.77
2019-03-21T01:29:04.730Z,17.27
2019-03-21T01:31:34.315Z,20.05
2019-03-21T01:34:04.011Z,18.23
2019-03-21T01:36:33.771Z,19.80
2019-03-21T01:39:04.038Z,19.95
2019-03-21T01:41:33.641Z,18.85
2019-03-21T01:44:03.243Z,15.48
2019-03-21T01:46:32.843Z,16.05
2019-03-21T01:49:02.447Z,19.57
2019-03-21T01:51:32.055Z,18.87
2019-03-21T01:54:01.721Z,15.98
2019-03-21T01:56:31.648Z,18.65
2019-03-21T01:59:01.262Z,16.87
2019-03-21T02:01:30.888Z,17.52
2019-03-21T02:04:00.527Z,17.65
2019-03-21T02:06:30.115Z,13.55
2019-03-21T02:08:59.730Z,16.10
2019-03-21T02:11:29.372Z,19.82
2019-03-21T02:13:59.072Z,20.40
2019-03-21T02:16:28.674Z,16.42
2019-03-21T02:18:58.295Z,15.80
2019-03-21T02:21:27.892Z,17.52
2019-03-21T02:23:57.494Z,21.52
2019-03-21T02:26:27.129Z,17.15
2019-03-21T02:28:56.741Z,22.65
2019-03-21T02:31:26.336Z,18.95
2019-03-21T02:33:55.956Z,19.12
2019-03-21T02:36:25.616Z,15.60
2019-03-21T02:38:55.226Z,22.10
2019-03-21T02:41:25.630Z,21.10
2019-03-21T02:43:55.806Z,21.33
2019-03-21T02:46:25.407Z,20.92
2019-03-21T02:48:55.570Z,17.95
2019-03-21T02:51:25.684Z,19.45
2019-03-21T02:53:55.377Z,18.50
2019-03-21T02:56:26.544Z,19.87
2019-03-21T02:58:56.760Z,21.33
2019-03-21T03:01:26.345Z,20.45
2019-03-21T03:03:56.004Z,17.10
2019-03-21T03:06:25.739Z,18.82
2019-03-21T03:08:55.444Z,18.70
2019-03-21T03:11:25.736Z,16.48
2019-03-21T03:13:55.718Z,17.30
2019-03-21T03:16:25.328Z,23.30
2019-03-21T03:18:55.028Z,15.95
2019-03-21T03:21:24.636Z,18.37
2019-03-21T03:23:54.247Z,20.97
2019-03-21T03:26:23.853Z,26.20
2019-03-21T03:28:53.476Z,16.45
2019-03-21T03:31:23.145Z,18.50
2019-03-21T03:33:52.851Z,21.87
2019-03-21T03:36:22.453Z,20.60
2019-03-21T03:38:52.047Z,19.90
2019-03-21T03:41:22.388Z,18.02
2019-03-21T03:43:52.035Z,18.57
2019-03-21T03:46:22.191Z,23.98
2019-03-21T03:48:51.814Z,20.25
2019-03-21T03:51:21.418Z,19.05
2019-03-21T03:53:52.112Z,16.52
2019-03-21T03:56:21.853Z,21.23
2019-03-21T03:58:54.519Z,24.35
2019-03-21T04:01:24.203Z,21.68
2019-03-21T04:03:53.813Z,22.00
2019-03-21T04:06:23.483Z,24.92
2019-03-21T04:08:53.152Z,19.52
2019-03-21T04:11:22.763Z,19.95
2019-03-21T04:13:52.367Z,23.55
2019-03-21T04:16:22.193Z,22.85
2019-03-21T04:18:51.797Z,23.85
2019-03-21T04:21:21.459Z,19.60
2019-03-21T04:23:51.090Z,25.95
2019-03-21T04:26:26.226Z,25.75
2019-03-21T04:28:55.825Z,25.52
2019-03-21T04:31:25.467Z,22.93
2019-03-21T04:33:58.189Z,20.95
2019-03-21T04:36:27.818Z,23.42
2019-03-21T04:38:57.428Z,23.07
2019-03-21T04:41:27.170Z,25.12
2019-03-21T04:43:56.751Z,21.57
2019-03-21T04:46:26.383Z,23.77
2019-03-21T04:48:56.006Z,23.57
2019-03-21T04:51:25.624Z,27.15
2019-03-21T04:53:55.300Z,18.45
2019-03-21T04:56:25.031Z,21.15
2019-03-21T04:58:54.658Z,22.07
2019-03-21T05:01:24.345Z,22.62
2019-03-21T05:03:53.948Z,22.60
2019-03-21T05:06:23.601Z,27.07
2019-03-21T05:08:53.203Z,23.70
2019-03-21T05:11:22.833Z,27.75
2019-03-21T05:13:52.426Z,25.62
2019-03-21T05:16:22.027Z,26.97
2019-03-21T05:18:59.450Z,28.62
2019-03-21T05:21:29.067Z,25.27
2019-03-21T05:23:58.670Z,25.70
2019-03-21T05:26:28.835Z,24.67
2019-03-21T05:28:58.433Z,29.92
2019-03-21T05:31:35.891Z,31.93
2019-03-21T05:34:05.655Z,27.10
2019-03-21T05:36:35.261Z,26.85
2019-03-21T05:39:08.033Z,29.63
2019-03-21T05:41:37.639Z,28.60
2019-03-21T05:44:25.560Z,26.30
2019-03-21T05:46:55.183Z,29.82
2019-03-21T05:49:24.791Z,26.05
2019-03-21T05:51:54.438Z,26.77
2019-03-21T05:54:24.034Z,23.30
2019-03-21T05:56:53.684Z,27.93
2019-03-21T05:59:23.278Z,27.17
2019-03-21T06:01:52.937Z,29.48
2019-03-21T06:04:22.533Z,30.70
2019-03-21T06:06:58.095Z,25.88
2019-03-21T06:09:27.692Z,33.67
2019-03-21T06:12:02.520Z,28.70
2019-03-21T06:14:35.191Z,28.80
2019-03-21T06:17:04.783Z,37.70
2019-03-21T06:19:49.468Z,31.85
2019-03-21T06:22:27.956Z,34.45
2019-03-21T06:25:09.740Z,34.78
2019-03-21T06:27:39.382Z,30.15
2019-03-21T06:30:09.250Z,31.40
2019-03-21T06:32:38.907Z,29.85
2019-03-21T06:35:11.664Z,28.47
2019-03-21T06:37:41.253Z,36.23
2019-03-21T06:40:10.863Z,30.50
2019-03-21T06:42:40.466Z,82.37
2019-03-21T06:45:10.157Z,43.05
2019-03-21T06:47:39.770Z,33.90
2019-03-21T06:50:09.450Z,45.80
2019-03-21T06:52:39.056Z,45.85
2019-03-21T06:55:10.852Z,33.02
2019-03-21T06:57:40.460Z,36.85
2019-03-21T07:00:11.451Z,38.00
2019-03-21T07:02:41.043Z,36.45
2019-03-21T07:05:10.912Z,36.80
2019-03-21T07:07:40.512Z,37.42
2019-03-21T07:10:10.963Z,36.50
2019-03-21T07:12:40.603Z,42.20
2019-03-21T07:15:11.564Z,43.48
2019-03-21T07:17:41.233Z,45.52
2019-03-21T07:20:12.692Z,56.42
2019-03-21T07:22:42.289Z,50.17
2019-03-21T07:25:12.248Z,48.73
2019-03-21T07:27:41.883Z,54.65
2019-03-21T07:30:14.442Z,50.35
2019-03-21T07:32:44.702Z,49.13
2019-03-21T07:35:14.394Z,44.33
2019-03-21T07:37:44.455Z,44.05
2019-03-21T07:40:14.730Z,55.45
2019-03-21T07:42:44.331Z,55.92
2019-03-21T07:45:14.094Z,47.62
2019-03-21T07:47:43.732Z,55.95
2019-03-21T07:50:14.681Z,46.77
2019-03-21T07:52:44.290Z,47.75
2019-03-21T07:55:14.163Z,58.63
2019-03-21T07:57:43.776Z,56.60
2019-03-21T08:00:19.725Z,70.30
2019-03-21T08:02:49.341Z,52.62
2019-03-21T16:55:47.970Z,22.75
2019-03-21T16:58:17.644Z,26.02
2019-03-21T17:00:47.354Z,23.85
2019-03-21T17:03:17.022Z,26.55
2019-03-21T17:05:46.876Z,22.48
2019-03-21T17:08:16.527Z,22.60
2019-03-21T17:10:46.503Z,25.17
2019-03-21T17:13:16.290Z,25.05
2019-03-21T17:15:45.936Z,32.33
2019-03-21T17:18:15.552Z,26.70
2019-03-21T17:20:45.147Z,25.65
2019-03-21T17:23:14.776Z,27.90
2019-03-21T17:25:44.496Z,28.10
2019-03-21T17:28:14.226Z,25.65
2019-03-21T17:31:03.734Z,27.27
2019-03-21T17:33:33.369Z,29.25
2019-03-21T17:36:02.976Z,29.87
2019-03-21T17:38:32.595Z,25.82
2019-03-21T17:41:02.262Z,28.42
2019-03-21T17:43:31.819Z,29.55
2019-03-21T17:46:04.422Z,27.45
2019-03-21T17:48:34.016Z,27.35
2019-03-21T17:51:03.686Z,32.93
2019-03-21T17:53:33.307Z,31.48
2019-03-21T17:56:04.144Z,29.45
2019-03-21T17:58:33.740Z,31.00
2019-03-21T18:01:04.698Z,33.23
2019-03-21T18:03:34.379Z,37.35
2019-03-21T18:06:04.080Z,29.95
2019-03-21T18:08:33.698Z,31.73
2019-03-21T18:11:04.194Z,35.23
2019-03-21T18:13:33.840Z,37.42
2019-03-21T18:16:03.590Z,33.48
2019-03-21T18:18:33.188Z,33.85
2019-03-21T18:21:05.362Z,36.53
2019-03-21T18:23:35.082Z,32.88
2019-03-21T18:26:04.691Z,29.15
2019-03-21T18:28:34.296Z,30.55
2019-03-21T18:31:03.983Z,33.65
2019-03-21T18:33:33.611Z,33.15
2019-03-21T18:36:03.386Z,32.55
2019-03-21T18:38:32.993Z,34.90
2019-03-21T18:41:03.426Z,30.15
2019-03-21T18:43:33.026Z,33.13
2019-03-21T18:46:02.709Z,47.90
2019-03-21T18:48:32.290Z,31.87
2019-03-21T18:51:04.821Z,30.15
2019-03-21T18:53:34.502Z,34.03
2019-03-21T18:56:04.994Z,35.98
2019-03-21T18:58:34.594Z,36.85
2019-03-21T19:01:04.223Z,37.88
2019-03-21T19:03:33.820Z,40.40
2019-03-21T19:06:04.313Z,41.60
2019-03-21T19:08:34.015Z,35.40
2019-03-21T19:11:04.087Z,36.03
2019-03-21T19:13:33.743Z,40.00
2019-03-21T19:16:05.364Z,47.73
2019-03-21T19:18:35.014Z,47.33
2019-03-21T19:21:04.827Z,51.08
2019-03-21T19:23:34.447Z,61.35
2019-03-21T19:26:04.183Z,62.58
2019-03-21T19:28:33.851Z,65.75
2019-03-21T19:31:03.511Z,65.87
2019-03-21T19:33:33.182Z,71.75
2019-03-21T19:36:03.951Z,68.80
2019-03-21T19:38:33.554Z,71.47
2019-03-21T19:41:04.705Z,71.02
2019-03-21T19:43:34.326Z,72.70
2019-03-21T19:46:04.009Z,74.12
2019-03-21T19:48:33.616Z,75.42
2019-03-21T19:51:03.254Z,69.80
2019-03-21T19:53:34.593Z,73.40
2019-03-21T19:56:08.663Z,71.75
2019-03-21T19:58:35.951Z,70.17
2019-03-21T20:01:05.716Z,67.30
2019-03-21T20:03:35.411Z,67.47
2019-03-21T20:06:05.079Z,68.12
2019-03-21T20:08:34.727Z,67.87
2019-03-21T20:11:04.306Z,64.65
2019-03-21T20:13:34.083Z,64.32
2019-03-21T20:16:03.736Z,61.25
2019-03-21T20:18:33.377Z,58.87
2019-03-21T20:21:03.056Z,64.25
2019-03-21T20:23:32.687Z,59.53
2019-03-21T20:26:02.350Z,65.32
2019-03-21T20:28:31.946Z,61.30
2019-03-21T20:31:02.327Z,62.33
2019-03-21T20:33:32.026Z,57.45
2019-03-21T20:36:01.753Z,73.42
2019-03-21T20:38:31.444Z,55.17
2019-03-21T20:41:01.105Z,55.88
2019-03-21T20:43:30.733Z,50.85
2019-03-21T20:46:00.332Z,57.10
2019-03-21T20:48:28.961Z,53.40
2019-03-21T20:50:58.746Z,54.55
2019-03-21T20:53:28.347Z,55.85
2019-03-21T20:55:58.799Z,53.80
2019-03-21T20:58:28.426Z,52.78
2019-03-21T21:00:58.130Z,52.58
2019-03-21T21:03:27.734Z,59.80
2019-03-21T21:05:57.378Z,57.85
2019-03-21T21:08:27.008Z,55.83
2019-03-21T21:10:56.637Z,60.73
2019-03-21T21:13:26.252Z,58.30
2019-03-21T21:15:55.946Z,57.95
2019-03-21T21:18:25.582Z,58.52
2019-03-21T21:20:55.182Z,59.93
2019-03-21T21:23:24.811Z,59.70
2019-03-21T21:26:05.043Z,59.20
2019-03-21T21:28:27.428Z,58.10
2019-03-21T21:30:57.033Z,58.38
2019-03-21T21:33:26.726Z,58.33
2019-03-21T21:35:56.361Z,64.65
2019-03-21T21:38:26.084Z,64.77
2019-03-21T21:40:55.703Z,58.23
2019-03-21T21:43:25.319Z,62.65
2019-03-21T21:45:55.030Z,62.48
2019-03-21T21:48:24.651Z,66.22
2019-03-21T21:50:54.347Z,67.55
2019-03-21T21:53:24.059Z,67.80
2019-03-21T21:55:53.663Z,70.17
2019-03-21T21:58:23.257Z,64.45
2019-03-21T22:00:52.889Z,71.02
2019-03-21T22:03:22.502Z,69.85
2019-03-21T22:05:52.144Z,68.92
2019-03-21T22:08:21.753Z,72.20
2019-03-21T22:10:51.369Z,76.12
2019-03-21T22:13:21.017Z,76.40
2019-03-21T22:15:50.627Z,78.52
2019-03-21T22:18:20.241Z,77.47
2019-03-21T22:20:49.918Z,75.42
2019-03-21T22:23:19.538Z,79.03
2019-03-21T22:25:49.164Z,76.15
2019-03-21T22:28:18.848Z,80.72
2019-03-21T22:30:48.550Z,78.52
2019-03-21T22:33:18.155Z,79.58
2019-03-21T22:35:47.791Z,83.97
2019-03-21T22:38:17.439Z,78.65
2019-03-21T22:40:47.042Z,77.22
2019-03-21T22:43:16.781Z,89.62
2019-03-21T22:45:46.434Z,81.45
2019-03-21T22:48:16.011Z,82.60
2019-03-21T22:50:45.652Z,87.12
2019-03-21T22:53:15.228Z,86.42
2019-03-21T22:55:44.863Z,87.40
2019-03-21T22:58:14.495Z,81.67
2019-03-21T23:00:46.443Z,88.35
2019-03-21T23:03:16.076Z,90.32
2019-03-21T23:05:45.682Z,90.85
2019-03-21T23:08:15.327Z,92.82
2019-03-21T23:10:45.295Z,96.75
2019-03-21T23:13:15.006Z,85.32
2019-03-21T23:15:44.711Z,88.35
2019-03-21T23:18:14.333Z,92.82
2019-03-21T23:20:43.954Z,93.05
2019-03-21T23:23:13.571Z,99.20
2019-03-21T23:25:43.261Z,95.03
2019-03-21T23:28:12.967Z,93.97
2019-03-21T23:30:42.602Z,94.22
2019-03-21T23:33:12.294Z,93.72
2019-03-21T23:35:41.899Z,93.82
2019-03-21T23:38:11.643Z,100.65
2019-03-21T23:40:41.270Z,96.92
2019-03-21T23:43:10.890Z,100.87
2019-03-21T23:45:40.569Z,91.55
2019-03-21T23:48:10.225Z,95.50
2019-03-21T23:50:39.930Z,100.90
2019-03-21T23:53:09.528Z,96.92
2019-03-21T23:55:39.161Z,101.30
2019-03-21T23:58:08.787Z,102.78
